Time;durP1;ratioP1;P1;durP2;ratioP2;P2;SDS_P1;SDS_P2;PMS_P1;PMS_P2;Temp;Humidity;BMP_temperature;BMP_pressure;BME280_temperature;BME280_humidity;BME280_pressure;Samples;Min_cycle;Max_cycle;Signal;HPM_P1;HPM_P2
2023/08/05 00:00:52;;;;;;;5.65;4.78;;;;;;;-140.66;100.00;55571.53;5134552;28;20463;-73
2023/08/05 00:03:38;;;;;;;5.72;5.13;;;;;;;-140.66;100.00;55571.53;5134238;28;20029;-73
2023/08/05 00:06:24;;;;;;;5.40;4.80;;;;;;;-140.66;100.00;55571.53;5134296;28;20030;-73
2023/08/05 00:09:10;;;;;;;6.20;4.50;;;;;;;-140.66;100.00;55571.53;5134754;28;20023;-73
2023/08/05 00:11:55;;;;;;;6.72;4.70;;;;;;;-140.66;100.00;55571.53;5134040;28;20023;-73
2023/08/05 00:14:41;;;;;;;6.38;4.20;;;;;;;-140.66;100.00;55571.53;5135152;28;20103;-73
2023/08/05 00:17:27;;;;;;;5.95;4.20;;;;;;;-140.66;100.00;55571.53;5133856;28;20077;-73
2023/08/05 00:20:12;;;;;;;6.68;3.95;;;;;;;-140.66;100.00;55571.53;5134325;28;20054;-74
2023/08/05 00:22:58;;;;;;;6.18;3.97;;;;;;;-140.66;100.00;55571.53;5135140;28;20034;-73
2023/08/05 00:25:44;;;;;;;4.45;3.70;;;;;;;-140.66;100.00;55571.53;5134363;28;20051;-73
2023/08/05 00:28:30;;;;;;;8.63;3.80;;;;;;;-140.66;100.00;55571.53;5134454;28;20026;-74
2023/08/05 00:31:16;;;;;;;4.95;3.85;;;;;;;-140.66;100.00;55571.53;5134115;28;20027;-74
2023/08/05 00:34:01;;;;;;;4.22;3.80;;;;;;;-140.66;100.00;55571.53;5134451;28;20063;-74
2023/08/05 00:36:47;;;;;;;5.90;3.55;;;;;;;-140.66;100.00;55571.53;5133410;28;20019;-74
2023/08/05 00:39:33;;;;;;;6.35;3.75;;;;;;;-140.66;100.00;55571.53;5133768;27;20445;-74
2023/08/05 00:42:19;;;;;;;5.45;3.38;;;;;;;-140.66;100.00;55571.53;5137925;27;20505;-74
2023/08/05 00:45:05;;;;;;;13.18;3.90;;;;;;;-140.66;100.00;55571.53;5138616;27;20058;-74
2023/08/05 00:47:52;;;;;;;5.22;3.85;;;;;;;-140.66;100.00;55571.53;5137209;27;20044;-72
2023/08/05 00:50:39;;;;;;;7.22;4.05;;;;;;;-140.66;100.00;55571.53;5137759;27;20143;-74
2023/08/05 00:53:25;;;;;;;5.53;3.90;;;;;;;-140.66;100.00;55571.53;5136933;27;20023;-74
2023/08/05 00:56:11;;;;;;;5.75;4.07;;;;;;;-140.66;100.00;55571.53;5137593;27;20031;-74
2023/08/05 00:58:57;;;;;;;8.32;4.00;;;;;;;-140.66;100.00;55571.53;5137091;27;20066;-74
2023/08/05 01:01:42;;;;;;;6.90;4.20;;;;;;;-140.66;100.00;55571.53;5137353;27;20034;-74
2023/08/05 01:04:28;;;;;;;5.57;4.15;;;;;;;-140.66;100.00;55571.53;5138729;27;20023;-74
2023/08/05 01:07:18;;;;;;;6.25;4.30;;;;;;;-140.66;100.00;55571.53;5136848;27;20418;-74
2023/08/05 01:10:04;;;;;;;7.20;4.45;;;;;;;-140.66;100.00;55571.53;5137417;27;20038;-73
2023/08/05 01:12:50;;;;;;;11.55;4.78;;;;;;;-140.66;100.00;55571.53;5137300;27;20020;-73
2023/08/05 01:15:36;;;;;;;8.52;5.30;;;;;;;-140.66;100.00;55571.53;5136916;27;20086;-73
2023/08/05 01:18:24;;;;;;;8.68;4.88;;;;;;;-140.66;100.00;55571.53;5137226;27;20330;-73
2023/08/05 01:21:18;;;;;;;8.02;4.80;;;;;;;-140.66;100.00;55571.53;5136976;27;20076;-74
2023/08/05 01:24:20;;;;;;;7.50;4.78;;;;;;;-140.66;100.00;55571.53;5137969;27;20023;-73
2023/08/05 01:27:08;;;;;;;15.63;5.82;;;;;;;-140.66;100.00;55571.53;5136739;27;20388;-74
2023/08/05 01:29:54;;;;;;;13.57;5.75;;;;;;;-140.66;100.00;55571.53;5136207;27;20080;-73
2023/08/05 01:32:40;;;;;;;8.00;5.10;;;;;;;-140.66;100.00;55571.53;5138069;27;20084;-73
2023/08/05 01:35:26;;;;;;;7.03;5.60;;;;;;;-140.66;100.00;55571.53;5136825;27;20102;-73
2023/08/05 01:38:11;;;;;;;6.63;5.22;;;;;;;-140.66;100.00;55571.53;5136870;27;20023;-73
2023/08/05 01:40:57;;;;;;;8.05;5.57;;;;;;;-140.66;100.00;55571.53;5136877;27;20444;-73
2023/08/05 01:43:43;;;;;;;6.28;5.20;;;;;;;-140.66;100.00;55571.53;5136309;27;20034;-74
2023/08/05 01:46:29;;;;;;;6.00;5.13;;;;;;;-140.66;100.00;55571.53;5136456;27;20023;-73
2023/08/05 01:49:15;;;;;;;6.03;5.40;;;;;;;-140.66;100.00;55571.53;5135805;27;20508;-74
2023/08/05 01:52:00;;;;;;;7.70;5.60;;;;;;;-140.66;100.00;55571.53;5136856;27;20032;-72
2023/08/05 01:54:46;;;;;;;6.65;5.20;;;;;;;-140.66;100.00;55571.53;5137332;27;20050;-73
2023/08/05 01:57:32;;;;;;;8.85;5.68;;;;;;;-140.66;100.00;55571.53;5136390;27;20023;-73
2023/08/05 02:00:20;;;;;;;8.55;6.03;;;;;;;-140.66;100.00;55571.53;5136206;27;20023;-72
2023/08/05 02:03:06;;;;;;;13.07;5.65;;;;;;;-140.66;100.00;55571.53;5137453;27;20522;-73
2023/08/05 02:05:52;;;;;;;9.43;6.28;;;;;;;-140.66;100.00;55571.53;5136267;27;20078;-72
2023/08/05 02:08:37;;;;;;;7.32;6.07;;;;;;;-140.66;100.00;55571.53;5136064;27;20449;-73
2023/08/05 02:11:23;;;;;;;8.80;5.78;;;;;;;-140.66;100.00;55571.53;5136434;27;20049;-73
2023/08/05 02:14:09;;;;;;;9.57;6.07;;;;;;;-140.66;100.00;55571.53;5137238;27;20451;-73
2023/08/05 02:16:54;;;;;;;9.73;6.55;;;;;;;-140.66;100.00;55571.53;5137471;27;20062;-72
2023/08/05 02:19:40;;;;;;;11.65;7.35;;;;;;;-140.66;100.00;55571.53;5137654;27;20023;-72
2023/08/05 02:22:26;;;;;;;9.45;6.70;;;;;;;-140.66;100.00;55571.53;5138105;27;20042;-73
2023/08/05 02:25:12;;;;;;;8.00;6.10;;;;;;;-140.66;100.00;55571.53;5138075;27;20027;-73
2023/08/05 02:27:57;;;;;;;9.80;7.03;;;;;;;-140.66;100.00;55571.53;5136876;27;20027;-71
2023/08/05 02:30:43;;;;;;;9.32;6.85;;;;;;;-140.66;100.00;55571.53;5137772;27;20090;-72
2023/08/05 02:33:29;;;;;;;8.23;6.75;;;;;;;-140.66;100.00;55571.53;5136332;27;20038;-73
2023/08/05 02:36:15;;;;;;;8.90;7.38;;;;;;;-140.66;100.00;55571.53;5136058;27;20051;-72
2023/08/05 02:39:00;;;;;;;10.57;7.30;;;;;;;-140.66;100.00;55571.53;5136745;27;20109;-72
2023/08/05 02:41:47;;;;;;;10.65;7.72;;;;;;;-140.66;100.00;55571.53;5135148;27;20027;-72
2023/08/05 02:44:33;;;;;;;9.32;7.95;;;;;;;-140.66;100.00;55571.53;5134989;27;20046;-72
2023/08/05 02:47:19;;;;;;;13.25;8.52;;;;;;;-140.66;100.00;55571.53;5135202;27;20082;-72
2023/08/05 02:50:08;;;;;;;11.23;8.13;;;;;;;-140.66;100.00;55571.53;5136529;27;20019;-72
2023/08/05 02:52:54;;;;;;;11.65;8.05;;;;;;;-140.66;100.00;55571.53;5157180;27;20026;-72
2023/08/05 02:55:40;;;;;;;12.73;8.10;;;;;;;-140.66;100.00;55571.53;5136952;27;20027;-73
2023/08/05 02:58:26;;;;;;;12.15;8.20;;;;;;;-140.66;100.00;55571.53;5135717;27;20042;-73
2023/08/05 03:01:12;;;;;;;9.57;8.55;;;;;;;-140.66;100.00;55571.53;5136438;27;20448;-73
2023/08/05 03:03:57;;;;;;;9.90;8.27;;;;;;;-140.66;100.00;55571.53;5135568;27;20360;-74
2023/08/05 03:06:43;;;;;;;9.32;8.05;;;;;;;-140.66;100.00;55571.53;5134982;27;20023;-73
2023/08/05 03:09:29;;;;;;;12.00;8.73;;;;;;;-140.66;100.00;55571.53;5136143;27;20023;-73
2023/08/05 03:12:17;;;;;;;12.38;9.82;;;;;;;-140.66;100.00;55571.53;5134549;27;20015;-73
2023/08/05 03:15:03;;;;;;;10.40;9.00;;;;;;;-140.66;100.00;55571.53;5135193;27;20338;-73
2023/08/05 03:17:49;;;;;;;14.30;9.27;;;;;;;-140.66;100.00;55571.53;5134812;27;20023;-74
2023/08/05 03:20:35;;;;;;;14.05;9.95;;;;;;;-140.66;100.00;55571.53;5135600;27;20363;-74
2023/08/05 03:23:20;;;;;;;12.98;10.25;;;;;;;-140.66;100.00;55571.53;5135055;27;20038;-73
2023/08/05 03:26:06;;;;;;;12.80;9.82;;;;;;;-140.66;100.00;55571.53;5135325;27;20103;-73
2023/08/05 03:28:52;;;;;;;16.00;11.63;;;;;;;-140.66;100.00;55571.53;5134799;27;20023;-73
2023/08/05 03:31:37;;;;;;;15.27;10.65;;;;;;;-140.66;100.00;55571.53;5135347;27;20042;-72
2023/08/05 03:34:24;;;;;;;14.48;11.32;;;;;;;-140.66;100.00;55571.53;5135270;27;20360;-74
2023/08/05 03:37:09;;;;;;;12.50;10.95;;;;;;;-140.66;100.00;55571.53;5135171;27;20023;-73
2023/08/05 03:39:55;;;;;;;12.48;10.52;;;;;;;-140.66;100.00;55571.53;5134054;27;20035;-73
2023/08/05 03:42:41;;;;;;;12.93;11.52;;;;;;;-140.66;100.00;55571.53;5135865;27;20034;-73
2023/08/05 03:45:27;;;;;;;15.40;11.65;;;;;;;-140.66;100.00;55571.53;5134252;28;20027;-73
2023/08/05 03:48:12;;;;;;;16.25;12.40;;;;;;;-140.66;100.00;55571.53;5135254;28;20100;-74
2023/08/05 03:50:58;;;;;;;14.60;11.75;;;;;;;-140.66;100.00;55571.53;5134992;28;20076;-73
2023/08/05 03:53:44;;;;;;;13.43;12.02;;;;;;;-140.66;100.00;55571.53;5134881;28;20632;-73
2023/08/05 03:56:30;;;;;;;15.55;12.05;;;;;;;-140.66;100.00;55571.53;5133483;28;20027;-74
2023/08/05 03:59:16;;;;;;;15.52;12.25;;;;;;;-140.66;100.00;55571.53;5134538;28;20037;-73
2023/08/05 04:02:03;;;;;;;19.50;13.23;;;;;;;-140.66;100.00;55571.53;5134354;28;20034;-73
2023/08/05 04:04:48;;;;;;;15.90;13.30;;;;;;;-140.66;100.00;55571.53;5134639;28;20059;-73
2023/08/05 04:07:34;;;;;;;18.50;12.82;;;;;;;-140.66;100.00;55571.53;5134831;28;20027;-73
2023/08/05 04:10:22;;;;;;;14.75;12.60;;;;;;;-140.66;100.00;55571.53;5135027;28;20062;-72
2023/08/05 04:13:11;;;;;;;17.23;12.88;;;;;;;-140.66;100.00;55571.53;5133464;28;20051;-73
2023/08/05 04:15:59;;;;;;;16.33;12.48;;;;;;;-140.66;100.00;55571.53;5136849;27;20030;-72
2023/08/05 04:18:48;;;;;;;19.17;13.65;;;;;;;-140.66;100.00;55571.53;5139195;27;20023;-74
2023/08/05 04:21:40;;;;;;;18.88;14.15;;;;;;;-140.66;100.00;55571.53;5138067;27;20030;-73
2023/08/05 04:24:28;;;;;;;24.30;14.82;;;;;;;-140.66;100.00;55571.53;5136761;27;20109;-74
2023/08/05 04:27:14;;;;;;;22.23;14.70;;;;;;;-140.66;100.00;55571.53;5137298;27;20493;-74
2023/08/05 04:30:01;;;;;;;22.35;14.98;;;;;;;-140.66;100.00;55571.53;5138143;27;20360;-74
2023/08/05 04:32:47;;;;;;;31.23;16.10;;;;;;;-140.66;100.00;55571.53;5138481;27;20350;-74
2023/08/05 04:35:33;;;;;;;25.30;14.98;;;;;;;-140.66;100.00;55571.53;5138554;27;20088;-73
2023/08/05 04:38:18;;;;;;;22.08;14.50;;;;;;;-140.66;100.00;55571.53;5137839;27;20039;-73
2023/08/05 04:41:04;;;;;;;22.80;13.82;;;;;;;-140.66;100.00;55571.53;5138513;27;20080;-73
2023/08/05 04:43:50;;;;;;;20.38;13.90;;;;;;;-140.66;100.00;55571.53;5137218;27;20083;-73
2023/08/05 04:46:36;;;;;;;21.90;14.80;;;;;;;-140.66;100.00;55571.53;5138051;27;20333;-74
2023/08/05 04:49:22;;;;;;;20.65;15.13;;;;;;;-140.66;100.00;55571.53;5138023;27;20119;-74
2023/08/05 04:52:08;;;;;;;22.58;14.35;;;;;;;-140.66;100.00;55571.53;5137298;27;20019;-73
2023/08/05 04:54:53;;;;;;;20.33;13.75;;;;;;;-140.66;100.00;55571.53;5137243;27;20097;-73
2023/08/05 04:57:39;;;;;;;21.63;15.45;;;;;;;-140.66;100.00;55571.53;5136701;27;20023;-73
2023/08/05 05:00:28;;;;;;;25.92;15.02;;;;;;;-140.66;100.00;55571.53;5137817;27;20369;-74
2023/08/05 05:03:13;;;;;;;20.88;15.15;;;;;;;-140.66;100.00;55571.53;5138191;27;20038;-74
2023/08/05 05:06:00;;;;;;;22.95;15.63;;;;;;;-140.66;100.00;55571.53;5136383;27;20035;-73
2023/08/05 05:08:46;;;;;;;25.00;15.13;;;;;;;-140.66;100.00;55571.53;5137623;27;20031;-73
2023/08/05 05:11:31;;;;;;;23.13;14.63;;;;;;;-140.66;100.00;55571.53;5137479;27;20019;-74
2023/08/05 05:14:17;;;;;;;16.33;13.93;;;;;;;-140.66;100.00;55571.53;5137832;27;20033;-73
2023/08/05 05:17:03;;;;;;;16.77;13.20;;;;;;;-140.66;100.00;55571.53;5137458;27;20027;-73
2023/08/05 05:19:49;;;;;;;18.55;13.05;;;;;;;-140.66;100.00;55571.53;5137287;27;20027;-73
2023/08/05 05:22:35;;;;;;;15.75;12.75;;;;;;;-140.66;100.00;55571.53;5137926;27;20030;-73
2023/08/05 05:25:22;;;;;;;19.05;12.82;;;;;;;-140.66;100.00;55571.53;5138021;27;20031;-74
2023/08/05 05:28:08;;;;;;;14.70;11.88;;;;;;;-140.66;100.00;55571.53;5136870;27;20042;-74
2023/08/05 05:30:53;;;;;;;15.23;12.30;;;;;;;-140.66;100.00;55571.53;5137213;27;20029;-74
2023/08/05 05:33:39;;;;;;;12.95;11.43;;;;;;;-140.66;100.00;55571.53;5136998;27;20027;-74
2023/08/05 05:36:25;;;;;;;12.55;10.93;;;;;;;-140.66;100.00;55571.53;5137111;27;20019;-74
2023/08/05 05:39:10;;;;;;;20.73;10.50;;;;;;;-140.66;100.00;55571.53;5135814;27;20034;-73
2023/08/05 05:41:56;;;;;;;17.48;11.20;;;;;;;-140.66;100.00;55571.53;5136597;27;20027;-74
2023/08/05 05:44:46;;;;;;;13.18;10.38;;;;;;;-140.66;100.00;55571.53;5136836;27;20072;-74
2023/08/05 05:47:32;;;;;;;13.18;10.00;;;;;;;-140.66;100.00;55571.53;5135801;27;20066;-73
2023/08/05 05:50:19;;;;;;;12.65;10.38;;;;;;;-140.66;100.00;55571.53;5136241;27;20046;-74
2023/08/05 05:53:04;;;;;;;11.13;9.20;;;;;;;-140.66;100.00;55571.53;5136954;27;20088;-74
2023/08/05 05:55:53;;;;;;;11.55;9.63;;;;;;;-140.66;100.00;55571.53;5137673;27;20023;-74
2023/08/05 05:58:39;;;;;;;11.82;9.40;;;;;;;-140.66;100.00;55571.53;5135296;27;20033;-74
2023/08/05 06:01:25;;;;;;;12.73;9.25;;;;;;;-140.66;100.00;55571.53;5136078;27;20050;-73
2023/08/05 06:04:10;;;;;;;15.85;8.75;;;;;;;-140.66;100.00;55571.53;5136338;27;20034;-74
2023/08/05 06:06:56;;;;;;;12.98;8.80;;;;;;;-140.66;100.00;55571.53;5136017;27;20050;-74
2023/08/05 06:09:42;;;;;;;14.00;8.93;;;;;;;-140.66;100.00;55571.53;5136945;27;20480;-73
2023/08/05 06:12:32;;;;;;;13.00;8.55;;;;;;;-140.66;100.00;55571.53;5135796;27;20034;-74
2023/08/05 06:15:18;;;;;;;9.13;8.15;;;;;;;-140.66;100.00;55571.53;5137296;27;20034;-74
2023/08/05 06:18:04;;;;;;;8.90;8.00;;;;;;;-140.66;100.00;55571.53;5135613;27;20069;-74
2023/08/05 06:20:49;;;;;;;11.45;8.05;;;;;;;-140.66;100.00;55571.53;5135913;27;20034;-74
2023/08/05 06:23:35;;;;;;;12.18;8.52;;;;;;;-140.66;100.00;55571.53;5135528;27;20433;-75
2023/08/05 06:26:21;;;;;;;11.48;8.35;;;;;;;-140.66;100.00;55571.53;5135710;27;20088;-74
2023/08/05 06:29:07;;;;;;;10.95;7.80;;;;;;;-140.66;100.00;55571.53;5136728;27;20114;-73
2023/08/05 06:31:52;;;;;;;9.60;8.07;;;;;;;-140.66;100.00;55571.53;5135708;27;20019;-74
2023/08/05 06:34:38;;;;;;;9.02;6.90;;;;;;;-140.66;100.00;55571.53;5135598;27;20130;-73
2023/08/05 06:37:24;;;;;;;9.98;7.10;;;;;;;-140.66;100.00;55571.53;5135971;27;20113;-74
2023/08/05 06:40:10;;;;;;;8.02;5.43;;;;;;;-140.66;100.00;55571.53;5136244;27;20038;-73
2023/08/05 06:42:56;;;;;;;7.00;5.10;;;;;;;-140.66;100.00;55571.53;5134701;27;20023;-72
2023/08/05 06:45:42;;;;;;;8.48;5.47;;;;;;;-140.66;100.00;55571.53;5135817;27;20084;-74
2023/08/05 06:48:28;;;;;;;8.43;5.20;;;;;;;-140.66;100.00;55571.53;5136450;27;20043;-74
2023/08/05 06:51:13;;;;;;;5.85;3.88;;;;;;;-140.66;100.00;55571.53;5135641;27;20072;-74
2023/08/05 06:53:59;;;;;;;7.30;4.75;;;;;;;-140.66;100.00;55571.53;5135004;27;20027;-74
2023/08/05 06:56:45;;;;;;;6.80;4.95;;;;;;;-140.66;100.00;55571.53;5135405;27;20118;-76
2023/08/05 06:59:30;;;;;;;8.45;7.05;;;;;;;-140.66;100.00;55571.53;5135723;27;20077;-74
2023/08/05 07:02:16;;;;;;;7.93;4.57;;;;;;;-140.66;100.00;55571.53;5134814;27;20360;-73
2023/08/05 07:05:03;;;;;;;7.38;4.75;;;;;;;-140.66;100.00;55571.53;5136027;27;20015;-74
2023/08/05 07:07:49;;;;;;;12.77;4.82;;;;;;;-140.66;100.00;55571.53;5133854;27;20034;-73
2023/08/05 07:10:35;;;;;;;7.72;4.25;;;;;;;-140.66;100.00;55571.53;5136226;27;20406;-73
2023/08/05 07:13:20;;;;;;;7.25;4.40;;;;;;;-140.66;100.00;55571.53;5135144;27;20019;-74
2023/08/05 07:16:07;;;;;;;10.63;4.30;;;;;;;-140.66;100.00;55571.53;5135218;27;20030;-72
2023/08/05 07:18:53;;;;;;;8.70;4.47;;;;;;;-140.66;100.00;55571.53;5142914;27;20036;-73
2023/08/05 07:21:39;;;;;;;5.65;3.75;;;;;;;-140.66;100.00;55571.53;5149430;27;20491;-74
2023/08/05 07:24:24;;;;;;;8.05;3.95;;;;;;;-140.66;100.00;55571.53;5135034;27;20035;-73
2023/08/05 07:27:10;;;;;;;11.07;4.60;;;;;;;-140.66;100.00;55571.53;5134983;27;20020;-73
2023/08/05 07:29:56;;;;;;;4.60;3.85;;;;;;;-140.66;100.00;55571.53;5135561;27;20031;-73
2023/08/05 07:32:42;;;;;;;8.50;3.67;;;;;;;-140.66;100.00;55571.53;5134575;27;20456;-72
2023/08/05 07:35:28;;;;;;;15.38;4.25;;;;;;;-140.66;100.00;55571.53;5134432;27;20031;-73
2023/08/05 07:38:14;;;;;;;7.00;3.28;;;;;;;-140.66;100.00;55571.53;5139232;27;20039;-73
2023/08/05 07:40:59;;;;;;;5.55;3.50;;;;;;;-140.66;100.00;55571.53;5144408;27;20448;-73
2023/08/05 07:43:45;;;;;;;12.13;3.47;;;;;;;-140.66;100.00;55571.53;5137038;27;20301;-73
2023/08/05 07:46:31;;;;;;;6.07;3.35;;;;;;;-140.66;100.00;55571.53;5134370;28;20023;-73
2023/08/05 07:49:17;;;;;;;8.32;3.70;;;;;;;-140.66;100.00;55571.53;5134448;27;20055;-73
2023/08/05 07:52:06;;;;;;;4.07;3.10;;;;;;;-140.66;100.00;55571.53;5134747;28;20364;-73
2023/08/05 07:54:52;;;;;;;15.15;3.67;;;;;;;-140.66;100.00;55571.53;5134970;28;20023;-73
2023/08/05 07:57:40;;;;;;;8.27;3.00;;;;;;;-140.66;100.00;55571.53;5135034;28;20034;-73
2023/08/05 08:00:27;;;;;;;13.13;3.90;;;;;;;-140.66;100.00;55571.53;5134513;28;20026;-73
2023/08/05 08:03:12;;;;;;;8.65;3.47;;;;;;;-140.66;100.00;55571.53;5134627;28;20031;-72
2023/08/05 08:05:59;;;;;;;3.80;3.17;;;;;;;-140.66;100.00;55571.53;5134364;28;20019;-73
2023/08/05 08:08:46;;;;;;;9.35;3.50;;;;;;;-140.66;100.00;55571.53;5134765;28;20114;-73
2023/08/05 08:11:31;;;;;;;5.05;3.20;;;;;;;-140.66;100.00;55571.53;5134395;28;20336;-73
2023/08/05 08:14:17;;;;;;;7.85;3.60;;;;;;;-140.66;100.00;55571.53;5134498;28;20031;-74
2023/08/05 08:17:03;;;;;;;15.30;3.42;;;;;;;-140.66;100.00;55571.53;5134566;28;20037;-74
2023/08/05 08:19:50;;;;;;;14.60;3.85;;;;;;;-140.66;100.00;55571.53;5134046;28;20055;-73
2023/08/05 08:22:36;;;;;;;7.25;3.80;;;;;;;-140.66;100.00;55571.53;5134841;28;20037;-74
2023/08/05 08:25:22;;;;;;;10.65;3.33;;;;;;;-140.66;100.00;55571.53;5134075;28;20031;-74
2023/08/05 08:28:07;;;;;;;10.88;3.58;;;;;;;-140.66;100.00;55571.53;5133960;28;20022;-73
2023/08/05 08:30:55;;;;;;;16.23;3.60;;;;;;;-140.66;100.00;55571.53;5134153;28;20100;-74
2023/08/05 08:33:40;;;;;;;10.48;3.22;;;;;;;-140.66;100.00;55571.53;5133992;28;20046;-73
2023/08/05 08:36:26;;;;;;;7.18;3.13;;;;;;;-140.66;100.00;55571.53;5134104;28;20050;-73
2023/08/05 08:39:12;;;;;;;11.23;3.50;;;;;;;-140.66;100.00;55571.53;5133871;28;20519;-73
2023/08/05 08:41:58;;;;;;;5.05;3.00;;;;;;;-140.66;100.00;55571.53;5134282;28;20050;-73
2023/08/05 08:44:45;;;;;;;6.05;3.40;;;;;;;-140.66;100.00;55571.53;5133927;28;20028;-74
2023/08/05 08:47:31;;;;;;;5.90;3.35;;;;;;;-140.66;100.00;55571.53;5133469;28;20131;-73
2023/08/05 08:50:17;;;;;;;15.35;3.80;;;;;;;-140.66;100.00;55571.53;5134197;28;20445;-73
2023/08/05 08:53:08;;;;;;;11.52;3.53;;;;;;;-140.66;100.00;55571.53;5134877;28;20023;-73
2023/08/05 08:55:54;;;;;;;5.13;3.17;;;;;;;-140.66;100.00;55571.53;5133801;28;20039;-74
2023/08/05 08:58:40;;;;;;;5.47;3.00;;;;;;;-140.66;100.00;55571.53;5134427;28;20028;-74
2023/08/05 09:01:27;;;;;;;7.50;2.97;;;;;;;-140.66;100.00;55571.53;5134594;27;20050;-75
2023/08/05 09:04:14;;;;;;;4.97;3.28;;;;;;;-140.66;100.00;55571.53;5137569;27;20118;-74
2023/08/05 09:07:00;;;;;;;8.68;3.20;;;;;;;-140.66;100.00;55571.53;5137041;27;20058;-74
2023/08/05 09:09:49;;;;;;;6.50;3.40;;;;;;;-140.66;100.00;55571.53;5136402;27;20073;-74
2023/08/05 09:12:36;;;;;;;23.38;4.43;;;;;;;-140.66;100.00;55571.53;5136873;27;20027;-73
2023/08/05 09:15:21;;;;;;;7.50;3.60;;;;;;;-140.66;100.00;55571.53;5137776;27;20031;-74
2023/08/05 09:18:08;;;;;;;4.13;3.55;;;;;;;-140.66;100.00;55571.53;5137533;27;20106;-74
2023/08/05 09:21:00;;;;;;;9.55;3.70;;;;;;;-140.66;100.00;55571.53;5137436;27;20031;-74
2023/08/05 09:23:46;;;;;;;7.25;3.50;;;;;;;-140.66;100.00;55571.53;5138325;27;20031;-73
2023/08/05 09:27:07;;;;;;;7.93;3.78;;;;;;;-140.66;100.00;55571.53;5136884;27;20027;-73
2023/08/05 09:30:02;;;;;;;12.93;3.60;;;;;;;-140.66;100.00;74223.59;5136911;27;20067;-74
2023/08/05 09:32:49;;;;;;;13.18;3.67;;;;;;;-140.66;100.00;100426.38;5136641;27;20102;-74
2023/08/05 09:35:35;;;;;;;8.07;3.60;;;;;;;30.39;100.00;100426.38;5137001;27;20468;-74
2023/08/05 09:38:23;;;;;;;8.77;3.50;;;;;;;30.39;100.00;100426.38;5137870;27;20098;-74
2023/08/05 09:41:09;;;;;;;6.72;3.38;;;;;;;30.39;100.00;100426.38;5137433;27;20389;-74
2023/08/05 09:43:55;;;;;;;10.18;3.42;;;;;;;30.39;100.00;100426.38;5138098;27;20110;-73
2023/08/05 09:46:41;;;;;;;6.15;3.20;;;;;;;30.39;100.00;100426.38;5137538;27;20459;-73
2023/08/05 09:49:29;;;;;;;10.73;3.40;;;;;;;30.39;100.00;100426.38;5136410;27;20034;-74
2023/08/05 09:52:17;;;;;;;5.38;3.60;;;;;;;30.39;100.00;100426.38;5136637;27;20027;-74
2023/08/05 09:55:05;;;;;;;9.30;4.03;;;;;;;30.39;100.00;100426.38;5144842;27;20017;-73
2023/08/05 09:57:53;;;;;;;6.03;3.00;;;;;;;30.39;100.00;100426.38;5151932;27;20027;-74
2023/08/05 10:00:42;;;;;;;6.18;3.20;;;;;;;30.39;100.00;100426.38;5139998;27;20072;-73
2023/08/05 10:03:28;;;;;;;6.05;3.05;;;;;;;30.39;100.00;100426.38;5137077;27;20050;-75
2023/08/05 10:06:15;;;;;;;4.75;3.13;;;;;;;36.27;45.39;100223.50;5136370;27;20031;-75
2023/08/05 10:09:01;;;;;;;10.20;3.20;;;;;;;35.98;46.01;100225.63;5135650;27;20070;-74
2023/08/05 10:11:47;;;;;;;11.25;3.13;;;;;;;36.14;46.91;100241.66;5136437;27;20019;-73
2023/08/05 10:14:34;;;;;;;3.92;2.65;;;;;;;35.92;46.80;100224.53;5128492;27;20115;-72
2023/08/05 10:17:20;;;;;;;9.02;2.92;;;;;;;36.80;45.14;100219.91;5146395;27;20023;-73
2023/08/05 10:20:11;;;;;;;5.18;2.90;;;;;;;36.80;45.14;100219.91;5136054;27;20027;-73
2023/08/05 10:23:08;;;;;;;7.50;2.85;;;;;;;36.33;44.10;100217.22;5135359;27;20050;-74
2023/08/05 10:25:59;;;;;;;6.85;2.90;;;;;;;36.33;44.10;100217.22;5134901;27;20023;-73
2023/08/05 10:28:45;;;;;;;5.60;2.70;;;;;;;35.94;43.10;100222.47;5135263;27;20176;-73
2023/08/05 10:31:36;;;;;;;6.53;2.50;;;;;;;36.05;43.08;100211.00;5135330;27;20452;-73
2023/08/05 10:34:21;;;;;;;8.07;2.25;;;;;;;36.08;41.65;100204.28;5136013;27;20027;-73
2023/08/05 10:37:07;;;;;;;10.70;2.85;;;;;;;36.08;41.65;100204.28;5135659;27;20019;-73
2023/08/05 10:40:00;;;;;;;5.57;2.63;;;;;;;36.35;40.37;100203.38;5134522;27;20126;-73
2023/08/05 10:42:47;;;;;;;11.13;2.80;;;;;;;35.85;42.20;100195.53;5136156;27;20096;-72
2023/08/05 10:45:42;;;;;;;7.85;2.90;;;;;;;36.25;41.10;100197.44;5135348;27;20031;-73
2023/08/05 10:48:35;;;;;;;6.43;2.60;;;;;;;36.29;41.56;100191.41;5135267;27;20035;-74
2023/08/05 10:51:22;;;;;;;19.23;3.33;;;;;;;35.96;43.07;100187.63;5136281;27;20033;-73
2023/08/05 10:54:08;;;;;;;14.10;2.88;;;;;;;36.39;42.93;100180.91;5135615;27;20019;-74
2023/08/05 10:56:54;;;;;;;13.80;2.65;;;;;;;36.16;42.15;100188.56;5135807;27;20034;-73
2023/08/05 11:00:03;;;;;;;6.15;2.50;;;;;;;36.26;40.92;100182.75;5135199;27;20099;-74
2023/08/05 11:03:24;;;;;;;13.27;2.92;;;;;;;36.30;41.24;100179.44;5135019;27;20060;-74
2023/08/05 11:06:11;;;;;;;8.13;2.70;;;;;;;36.27;41.21;100171.63;5135137;27;20031;-73
2023/08/05 11:09:00;;;;;;;7.93;2.42;;;;;;;36.27;40.75;100162.63;5135249;27;20426;-73
2023/08/05 11:11:47;;;;;;;18.00;2.97;;;;;;;36.51;40.81;100168.34;5135921;27;20022;-74
2023/08/05 11:14:34;;;;;;;5.20;2.38;;;;;;;36.51;39.83;100163.06;5135527;27;20047;-74
2023/08/05 11:17:20;;;;;;;4.13;2.50;;;;;;;36.67;40.15;100148.84;5136080;27;20022;-74
2023/08/05 11:20:06;;;;;;;4.70;2.38;;;;;;;36.67;40.15;100148.84;5134557;27;20356;-74
2023/08/05 11:22:52;;;;;;;6.32;2.67;;;;;;;36.65;40.05;100128.28;5135282;27;20103;-73
2023/08/05 11:25:37;;;;;;;11.50;2.70;;;;;;;36.97;39.90;100141.13;5134683;27;20409;-73
2023/08/05 11:28:23;;;;;;;8.57;2.90;;;;;;;36.42;40.69;100130.53;5135027;27;20027;-74
2023/08/05 11:31:09;;;;;;;5.35;2.70;;;;;;;36.42;40.69;100130.53;5134628;27;20027;-73
2023/08/05 11:33:55;;;;;;;9.45;2.50;;;;;;;36.97;39.54;100125.59;5134806;27;20023;-74
2023/08/05 11:36:41;;;;;;;6.75;2.50;;;;;;;36.97;39.54;100125.59;5134295;27;20031;-74
2023/08/05 11:39:26;;;;;;;8.05;2.65;;;;;;;37.22;38.24;100137.59;5134292;27;20031;-74
2023/08/05 11:42:12;;;;;;;15.65;2.60;;;;;;;37.22;38.24;100137.59;5136171;27;20059;-73
2023/08/05 11:44:58;;;;;;;9.73;3.42;;;;;;;37.22;38.24;100137.59;5135254;27;20088;-74
2023/08/05 11:47:45;;;;;;;8.32;2.65;;;;;;;37.22;38.24;100137.59;5133608;27;20051;-74
2023/08/05 11:50:35;;;;;;;5.60;2.13;;;;;;;37.22;38.24;100137.59;5135265;28;20034;-74
2023/08/05 11:53:21;;;;;;;8.57;2.28;;;;;;;37.22;38.24;100137.59;5134145;28;20030;-72
2023/08/05 11:56:06;;;;;;;6.13;2.40;;;;;;;37.22;38.24;100137.59;5134382;28;20031;-78
2023/08/05 11:58:52;;;;;;;6.40;2.40;;;;;;;37.22;38.24;100137.59;5134684;28;20027;-75
2023/08/05 12:01:40;;;;;;;11.32;2.80;;;;;;;37.22;38.24;100137.59;5134909;28;20023;-75
2023/08/05 12:04:26;;;;;;;11.05;2.40;;;;;;;37.22;38.24;100137.59;5134674;28;20027;-75
2023/08/05 12:07:16;;;;;;;13.10;2.85;;;;;;;37.22;38.24;100137.59;5134283;28;20019;-74
2023/08/05 12:10:03;;;;;;;2.92;2.42;;;;;;;37.22;38.24;100137.59;5134551;28;20051;-73
2023/08/05 12:12:50;;;;;;;7.80;2.60;;;;;;;37.22;38.24;100137.59;5134273;28;20019;-74
2023/08/05 12:15:36;;;;;;;11.93;2.92;;;;;;;37.22;38.24;100137.59;5134608;28;20031;-73
2023/08/05 12:18:22;;;;;;;8.55;3.05;;;;;;;37.22;38.24;100137.59;5133278;28;20019;-73
2023/08/05 12:21:07;;;;;;;9.95;3.25;;;;;;;37.22;38.24;100137.59;5134885;28;20066;-73
2023/08/05 12:23:53;;;;;;;6.40;3.00;;;;;;;37.22;38.24;100137.59;5134552;28;20345;-74
2023/08/05 12:26:39;;;;;;;4.15;2.97;;;;;;;37.22;38.24;100137.59;5134462;28;20456;-73
2023/08/05 12:29:24;;;;;;;7.88;3.20;;;;;;;37.22;38.24;100137.59;5135219;28;20019;-73
2023/08/05 12:32:10;;;;;;;10.38;3.13;;;;;;;37.22;38.24;100137.59;5133578;28;20366;-73
2023/08/05 12:34:56;;;;;;;5.00;2.83;;;;;;;37.22;38.24;100137.59;5134586;28;20023;-75